KFST

Fort Stockton-Pecos County Airport

Fort Stockton, Texas, USA
METAR KFST 190853Z AUTO 16012KT 10SM CLR 21/19 A2996 RMK AO2 SLP095 T02110189 56008
Observed Flight Rules
Sep-19 @ 08:53 UTC (12 minutes ago) Visual Flight Rules
Wind Visibility Clouds
160° at 12 knots 10 miles
  • Clear skies
Temperatures Readings
Current 21°C / 70°F
Dewpoint 19°C / 66°F
Humidity 88%
Altimeter 29.96" Hg
Pressure 1009.5 hPa
Elevation 918
METAR KFST 190853Z AUTO 16012KT 10SM CLR 21/19 A2996 RMK AO2 SLP095 T02110189 56008
Observed Flight Rules
Sep-19 @ 08:53 UTC
(12 minutes ago)
VFR
Wind Visibility
160° at 12 knots 10 miles
Clouds
  • Clear skies
Temperature Dewpoint
21°C / 70°F 19°C / 66°F
Humidity Altimeter Pressure
88% 29.96" Hg 1009.5 hPa